Time;durP1;ratioP1;P1;durP2;ratioP2;P2;SDS_P1;SDS_P2;PMS_P1;PMS_P2;Temp;Humidity;BMP_temperature;BMP_pressure;BME280_temperature;BME280_humidity;BME280_pressure;Samples;Min_cycle;Max_cycle;Signal;HPM_P1;HPM_P2
2021/12/26 00:01:57;;;;;;;22.27;10.30;;;-5.90;99.90;;;;;;5078465;28;20205;-67
2021/12/26 00:04:24;;;;;;;19.50;9.30;;;-5.90;99.90;;;;;;5074679;28;20587;-67
2021/12/26 00:06:52;;;;;;;25.57;10.63;;;-5.90;99.90;;;;;;5073509;28;20212;-67
2021/12/26 00:09:19;;;;;;;24.70;10.80;;;-5.90;99.90;;;;;;5074211;28;20215;-67
2021/12/26 00:11:46;;;;;;;19.43;9.47;;;-5.90;99.90;;;;;;5073623;28;20296;-67
2021/12/26 00:14:13;;;;;;;23.30;9.83;;;-6.00;99.90;;;;;;5072547;28;20215;-67
2021/12/26 00:16:41;;;;;;;19.77;9.80;;;-6.00;99.90;;;;;;5077285;28;20220;-68
2021/12/26 00:19:08;;;;;;;23.50;10.63;;;-6.00;99.90;;;;;;5084095;28;20660;-67
2021/12/26 00:21:35;;;;;;;22.03;9.47;;;-6.00;99.90;;;;;;5080880;28;20316;-68
2021/12/26 00:24:04;;;;;;;22.37;10.87;;;-6.00;99.90;;;;;;5073831;28;20557;-67
2021/12/26 00:26:32;;;;;;;22.97;10.63;;;-6.00;99.90;;;;;;5073734;28;20296;-67
2021/12/26 00:29:00;;;;;;;20.90;9.83;;;-6.00;99.90;;;;;;5072226;28;20724;-67
2021/12/26 00:31:27;;;;;;;23.97;10.47;;;-6.00;99.90;;;;;;5073050;28;20207;-67
2021/12/26 00:33:54;;;;;;;21.43;9.23;;;-6.00;99.90;;;;;;5077970;28;20208;-67
2021/12/26 00:36:20;;;;;;;14.90;8.70;;;-6.00;99.90;;;;;;5072930;28;20688;-67
2021/12/26 00:38:48;;;;;;;26.63;11.10;;;-6.00;99.90;;;;;;5073060;28;20602;-67
2021/12/26 00:41:16;;;;;;;19.80;9.70;;;-6.00;99.90;;;;;;5059871;28;20309;-68
2021/12/26 00:43:43;;;;;;;20.53;9.60;;;-6.00;99.90;;;;;;5073488;28;20209;-66
2021/12/26 00:46:10;;;;;;;23.13;10.07;;;-5.90;99.90;;;;;;5073338;28;20605;-67
2021/12/26 00:48:36;;;;;;;22.50;9.90;;;-5.90;99.90;;;;;;5078613;28;20208;-67
2021/12/26 00:51:03;;;;;;;22.57;10.43;;;-5.90;99.90;;;;;;5079910;28;20268;-67
2021/12/26 00:53:32;;;;;;;20.50;10.53;;;-5.90;99.90;;;;;;5072089;28;20205;-67
2021/12/26 00:55:59;;;;;;;24.37;10.90;;;-5.80;99.90;;;;;;5072294;28;20209;-67
2021/12/26 00:58:27;;;;;;;26.23;11.57;;;-5.90;99.90;;;;;;5072467;28;20209;-67
2021/12/26 01:00:54;;;;;;;20.80;10.73;;;-5.80;99.90;;;;;;5072869;28;20229;-67
2021/12/26 01:03:21;;;;;;;22.87;10.27;;;-5.80;99.90;;;;;;5073302;28;20292;-67
2021/12/26 01:05:51;;;;;;;22.20;10.73;;;-5.80;99.90;;;;;;5078715;28;20213;-68
2021/12/26 01:08:24;;;;;;;26.40;10.57;;;-5.80;99.90;;;;;;5073214;28;20237;-69
2021/12/26 01:10:58;;;;;;;26.17;11.40;;;-5.80;99.90;;;;;;5073740;28;20205;-67
2021/12/26 01:13:30;;;;;;;26.40;11.87;;;-5.80;99.90;;;;;;5073391;28;20215;-67
2021/12/26 01:16:00;;;;;;;23.60;10.93;;;-5.80;99.90;;;;;;5072668;28;20209;-67
2021/12/26 01:18:31;;;;;;;22.97;9.97;;;-5.80;99.90;;;;;;5071954;28;20205;-66
2021/12/26 01:21:03;;;;;;;22.80;10.17;;;-5.80;99.90;;;;;;5073119;28;20221;-66
2021/12/26 01:23:31;;;;;;;26.70;11.33;;;-5.80;99.90;;;;;;5072651;28;20304;-66
2021/12/26 01:25:58;;;;;;;25.87;11.17;;;-5.80;99.90;;;;;;5076604;28;20213;-66
2021/12/26 01:28:28;;;;;;;22.77;10.87;;;-5.90;99.90;;;;;;5076495;28;20228;-67
2021/12/26 01:30:56;;;;;;;29.87;12.20;;;-5.90;99.90;;;;;;5076809;28;20198;-66
2021/12/26 01:33:23;;;;;;;23.07;11.10;;;-5.90;99.90;;;;;;5076800;28;20666;-66
2021/12/26 01:35:50;;;;;;;21.20;11.17;;;-5.90;99.90;;;;;;5076575;28;20224;-66
2021/12/26 01:38:19;;;;;;;22.60;10.43;;;-5.80;99.90;;;;;;5076500;28;20202;-66
2021/12/26 01:40:49;;;;;;;26.70;11.20;;;-5.80;99.90;;;;;;5075626;28;20224;-66
2021/12/26 01:43:18;;;;;;;21.97;9.80;;;-5.70;99.90;;;;;;5076850;28;20197;-66
2021/12/26 01:45:47;;;;;;;27.33;11.07;;;-5.70;99.90;;;;;;5076094;28;20263;-66
2021/12/26 01:48:15;;;;;;;21.10;10.73;;;-5.70;99.90;;;;;;5077974;28;20202;-67
2021/12/26 01:50:44;;;;;;;24.47;11.27;;;-5.80;99.90;;;;;;5085971;28;20224;-67
2021/12/26 01:53:11;;;;;;;24.10;11.87;;;-5.70;99.90;;;;;;5076195;28;20209;-67
2021/12/26 01:55:40;;;;;;;27.57;11.23;;;-5.80;99.90;;;;;;5077259;28;20209;-67
2021/12/26 01:58:10;;;;;;;29.07;11.33;;;-5.80;99.90;;;;;;5075950;28;20624;-66
2021/12/26 02:00:39;;;;;;;24.47;11.13;;;-5.80;99.90;;;;;;5076189;28;20708;-68
2021/12/26 02:03:07;;;;;;;24.13;11.60;;;-5.80;99.90;;;;;;5076338;28;20580;-67
2021/12/26 02:05:34;;;;;;;24.73;10.93;;;-5.80;99.90;;;;;;5081333;28;20662;-66
2021/12/26 02:08:02;;;;;;;30.27;12.30;;;-5.80;99.90;;;;;;5076196;28;20568;-67
2021/12/26 02:10:29;;;;;;;23.83;12.03;;;-5.80;99.90;;;;;;5075840;28;20197;-66
2021/12/26 02:12:55;;;;;;;22.30;10.17;;;-5.80;99.90;;;;;;5075433;28;20231;-66
2021/12/26 02:15:22;;;;;;;21.13;10.63;;;-5.90;99.90;;;;;;5074559;28;20201;-66
2021/12/26 02:17:49;;;;;;;25.17;11.00;;;-5.90;99.90;;;;;;5074621;28;20205;-66
2021/12/26 02:20:21;;;;;;;22.17;11.23;;;-5.90;99.90;;;;;;5074140;28;20661;-66
2021/12/26 02:22:54;;;;;;;29.80;11.90;;;-5.90;99.90;;;;;;5081488;28;20587;-66
2021/12/26 02:27:30;;;;;;;27.87;12.20;;;-5.90;99.90;;;;;;5078462;28;20281;-65
2021/12/26 02:28:19;;;;;;;20.93;9.67;;;-5.90;99.90;;;;;;5075558;28;20229;-65
2021/12/26 02:30:46;;;;;;;22.20;10.53;;;-5.90;99.90;;;;;;5073933;28;20832;-66
2021/12/26 02:33:13;;;;;;;24.67;11.40;;;-5.90;99.90;;;;;;5074432;28;20668;-66
2021/12/26 02:35:43;;;;;;;20.40;10.60;;;-5.90;99.90;;;;;;5072745;28;20654;-66
2021/12/26 02:38:12;;;;;;;24.90;10.73;;;-5.90;99.90;;;;;;5074151;28;20209;-67
2021/12/26 02:40:41;;;;;;;25.30;11.03;;;-6.00;99.90;;;;;;5074043;28;20232;-66
2021/12/26 02:43:08;;;;;;;26.03;10.63;;;-6.00;99.90;;;;;;5073963;28;20215;-67
2021/12/26 02:45:35;;;;;;;29.50;11.43;;;-6.00;99.90;;;;;;5073743;28;20213;-66
2021/12/26 02:48:03;;;;;;;19.80;10.90;;;-6.00;99.90;;;;;;5059873;28;20201;-66
2021/12/26 02:50:31;;;;;;;24.23;11.77;;;-6.00;99.90;;;;;;5073410;28;20974;-66
2021/12/26 02:53:03;;;;;;;23.73;10.97;;;-6.00;99.90;;;;;;5072294;28;20650;-66
2021/12/26 02:55:30;;;;;;;26.00;11.83;;;-6.10;99.90;;;;;;5070842;28;20325;-66
2021/12/26 02:57:59;;;;;;;21.53;11.17;;;-6.10;99.90;;;;;;5073845;28;20339;-67
2021/12/26 03:00:30;;;;;;;22.70;10.13;;;-6.10;99.90;;;;;;5060859;28;20256;-66
2021/12/26 03:03:00;;;;;;;21.27;10.67;;;-6.10;99.90;;;;;;5073885;28;20197;-66
2021/12/26 03:05:29;;;;;;;25.40;10.63;;;-6.20;99.90;;;;;;5073415;28;20654;-66
2021/12/26 03:07:57;;;;;;;25.00;10.57;;;-6.10;99.90;;;;;;5073846;28;20215;-67
2021/12/26 03:10:26;;;;;;;25.53;11.03;;;-6.20;99.90;;;;;;5073060;28;20541;-65
2021/12/26 03:12:55;;;;;;;21.47;9.80;;;-6.20;99.90;;;;;;5073640;28;20305;-66
2021/12/26 03:15:23;;;;;;;23.27;10.77;;;-6.20;99.90;;;;;;5073182;28;20300;-66
2021/12/26 03:17:50;;;;;;;23.93;11.20;;;-6.10;99.90;;;;;;5073151;28;20267;-66
2021/12/26 03:20:20;;;;;;;22.33;10.03;;;-6.20;99.90;;;;;;5074062;28;20219;-66
2021/12/26 03:22:47;;;;;;;19.63;9.77;;;-6.20;99.90;;;;;;5073491;28;20216;-66
2021/12/26 03:25:16;;;;;;;20.73;9.13;;;-6.20;99.90;;;;;;5072943;28;20212;-65
2021/12/26 03:27:45;;;;;;;22.53;10.57;;;-6.20;99.90;;;;;;5065979;28;20250;-67
2021/12/26 03:30:21;;;;;;;29.03;10.50;;;-6.20;99.90;;;;;;5065941;28;20209;-67
2021/12/26 03:32:49;;;;;;;25.10;9.83;;;-6.30;99.90;;;;;;5072918;28;20205;-66
2021/12/26 03:35:16;;;;;;;22.70;9.90;;;-6.20;99.90;;;;;;5073214;28;20220;-67
2021/12/26 03:37:45;;;;;;;19.97;10.33;;;-6.20;99.90;;;;;;5073344;28;20674;-66
2021/12/26 03:40:13;;;;;;;21.57;10.20;;;-6.20;99.90;;;;;;5073177;28;20290;-65
2021/12/26 03:42:40;;;;;;;27.60;10.80;;;-6.20;99.90;;;;;;5080331;28;20224;-66
2021/12/26 03:45:10;;;;;;;21.80;9.80;;;-6.20;99.90;;;;;;5083185;28;20755;-67
2021/12/26 03:47:39;;;;;;;22.43;10.80;;;-6.20;99.90;;;;;;5072062;28;20201;-67
2021/12/26 03:50:07;;;;;;;20.17;9.63;;;-6.20;99.90;;;;;;5072131;28;20211;-66
2021/12/26 03:52:35;;;;;;;19.33;9.27;;;-6.30;99.90;;;;;;5071811;28;20673;-66
2021/12/26 03:55:02;;;;;;;23.40;10.73;;;-6.30;99.90;;;;;;5072202;28;20204;-66
2021/12/26 03:57:29;;;;;;;25.13;10.57;;;-6.20;99.90;;;;;;5074760;28;20221;-66
2021/12/26 03:59:56;;;;;;;27.00;10.73;;;-6.30;99.90;;;;;;5071727;28;20565;-65
2021/12/26 04:02:24;;;;;;;24.67;10.43;;;-6.30;99.90;;;;;;5064718;28;20236;-65
2021/12/26 04:04:51;;;;;;;23.40;10.60;;;-6.30;99.90;;;;;;5066936;28;20569;-65
2021/12/26 04:07:18;;;;;;;22.30;9.90;;;-6.30;99.90;;;;;;5072127;28;20197;-67
2021/12/26 04:09:45;;;;;;;23.73;10.77;;;-6.30;99.90;;;;;;5072375;28;20205;-66
2021/12/26 04:12:12;;;;;;;23.07;10.37;;;-6.30;99.90;;;;;;5079568;28;20204;-67
2021/12/26 04:14:39;;;;;;;20.73;10.23;;;-6.30;99.90;;;;;;5071802;28;20237;-66
2021/12/26 04:17:06;;;;;;;19.93;9.53;;;-6.30;99.90;;;;;;5071741;28;20301;-66
2021/12/26 04:19:34;;;;;;;20.60;10.47;;;-6.40;99.90;;;;;;5072261;28;20205;-67
2021/12/26 04:22:02;;;;;;;24.43;10.33;;;-6.30;99.90;;;;;;5071202;28;20217;-66
2021/12/26 04:24:30;;;;;;;22.33;10.17;;;-6.40;99.90;;;;;;5071779;28;20204;-66
2021/12/26 04:26:57;;;;;;;24.43;10.57;;;-6.40;99.90;;;;;;5071746;28;20229;-66
2021/12/26 04:29:23;;;;;;;26.80;11.53;;;-6.40;99.90;;;;;;5058387;28;20212;-66
2021/12/26 04:31:50;;;;;;;25.03;11.33;;;-6.40;99.90;;;;;;5071509;28;20205;-66
2021/12/26 04:34:17;;;;;;;23.07;11.73;;;-6.40;99.90;;;;;;5071256;28;20360;-66
2021/12/26 04:36:45;;;;;;;24.00;10.67;;;-6.40;99.90;;;;;;5071915;28;20209;-66
2021/12/26 04:39:12;;;;;;;24.57;11.63;;;-6.40;99.90;;;;;;5071295;28;20206;-66
2021/12/26 04:41:39;;;;;;;18.93;10.30;;;-6.40;99.90;;;;;;5071774;28;20252;-66
2021/12/26 04:44:06;;;;;;;24.30;11.03;;;-6.50;99.90;;;;;;5071017;28;20579;-67
2021/12/26 04:46:33;;;;;;;20.93;10.43;;;-6.50;99.90;;;;;;5071442;28;20205;-67
2021/12/26 04:48:59;;;;;;;22.83;11.57;;;-6.50;99.90;;;;;;5070904;28;20210;-66
2021/12/26 04:51:26;;;;;;;21.90;10.60;;;-6.50;99.90;;;;;;5071672;28;20205;-65
2021/12/26 04:53:54;;;;;;;24.73;12.07;;;-6.50;99.90;;;;;;5071523;28;20296;-66
2021/12/26 04:56:22;;;;;;;26.13;10.47;;;-6.50;99.90;;;;;;5071542;28;20581;-67
2021/12/26 04:58:48;;;;;;;26.33;11.60;;;-6.60;99.90;;;;;;5071012;28;20646;-66
2021/12/26 05:01:16;;;;;;;26.40;12.27;;;-6.60;99.90;;;;;;5071726;28;20225;-66
2021/12/26 05:03:43;;;;;;;22.37;11.73;;;-6.60;99.90;;;;;;5071140;28;20208;-68
2021/12/26 05:06:10;;;;;;;22.03;11.07;;;-6.60;99.90;;;;;;5071270;28;20272;-67
2021/12/26 05:08:37;;;;;;;21.60;10.47;;;-6.50;99.90;;;;;;5070538;28;20732;-67
2021/12/26 05:11:05;;;;;;;21.30;10.83;;;-6.50;99.90;;;;;;5071969;28;20205;-66
2021/12/26 05:13:32;;;;;;;29.07;12.43;;;-6.50;99.90;;;;;;5070986;28;20208;-66
2021/12/26 05:15:59;;;;;;;21.30;11.13;;;-6.50;99.90;;;;;;5063075;28;20205;-66
2021/12/26 05:18:26;;;;;;;22.70;11.13;;;-6.50;99.90;;;;;;5065296;28;20201;-66
2021/12/26 05:20:53;;;;;;;26.77;12.07;;;-6.50;99.90;;;;;;5071691;28;20209;-66
2021/12/26 05:23:20;;;;;;;29.63;12.77;;;-6.50;99.90;;;;;;5070940;28;20208;-65
2021/12/26 05:25:46;;;;;;;30.37;13.07;;;-6.50;99.90;;;;;;5072234;28;20305;-66
2021/12/26 05:28:15;;;;;;;24.20;11.87;;;-6.60;99.90;;;;;;5071108;28;20233;-65
2021/12/26 05:30:42;;;;;;;27.23;12.07;;;-6.50;99.90;;;;;;5071769;28;20408;-66
2021/12/26 05:33:08;;;;;;;31.83;13.20;;;-6.60;99.90;;;;;;5071203;28;20235;-66
2021/12/26 05:35:35;;;;;;;24.83;12.60;;;-6.60;99.90;;;;;;5070861;28;20205;-66
2021/12/26 05:38:02;;;;;;;27.87;12.87;;;-6.60;99.90;;;;;;5071091;28;20201;-66
2021/12/26 05:40:29;;;;;;;27.37;11.77;;;-6.60;99.90;;;;;;5071671;28;20717;-67
2021/12/26 05:42:56;;;;;;;27.47;13.67;;;-6.60;99.90;;;;;;5071074;28;20229;-67
2021/12/26 05:45:24;;;;;;;34.73;14.17;;;-6.60;99.90;;;;;;5070884;28;20236;-67
2021/12/26 05:47:51;;;;;;;26.07;13.00;;;-6.60;99.90;;;;;;5070677;28;20308;-66
2021/12/26 05:50:21;;;;;;;25.93;12.13;;;-6.60;99.90;;;;;;5071291;28;20223;-66
2021/12/26 05:52:48;;;;;;;24.03;11.80;;;-6.70;99.90;;;;;;5070591;28;20209;-66
2021/12/26 05:55:16;;;;;;;27.70;13.47;;;-6.70;99.90;;;;;;5069872;28;20206;-66
2021/12/26 05:57:43;;;;;;;29.03;13.60;;;-6.70;99.90;;;;;;5070079;28;20231;-65
2021/12/26 06:00:13;;;;;;;30.83;12.57;;;-6.70;99.90;;;;;;5070660;28;20201;-66
2021/12/26 06:02:42;;;;;;;27.03;13.67;;;-6.70;99.90;;;;;;5070836;28;20611;-66
2021/12/26 06:05:09;;;;;;;28.40;13.30;;;-6.70;99.90;;;;;;5071048;28;20213;-66
2021/12/26 06:07:37;;;;;;;27.80;12.67;;;-6.70;99.90;;;;;;5071390;28;20206;-66
2021/12/26 06:10:05;;;;;;;32.40;14.97;;;-6.70;99.90;;;;;;5072389;28;20209;-66
2021/12/26 06:12:32;;;;;;;30.80;13.73;;;-6.70;99.90;;;;;;5074326;28;20193;-67
2021/12/26 06:14:58;;;;;;;33.67;14.30;;;-6.70;99.90;;;;;;5073793;28;20212;-66
2021/12/26 06:17:25;;;;;;;32.13;14.57;;;-6.80;99.90;;;;;;5074269;28;20729;-66
2021/12/26 06:19:53;;;;;;;27.93;13.57;;;-6.80;99.90;;;;;;5074801;28;20216;-66
2021/12/26 06:22:20;;;;;;;29.90;14.23;;;-6.80;99.90;;;;;;5073102;28;20238;-66
2021/12/26 06:24:47;;;;;;;29.00;14.03;;;-6.80;99.90;;;;;;5074059;28;20915;-66
2021/12/26 06:27:14;;;;;;;28.47;14.10;;;-6.80;99.90;;;;;;5073776;28;20800;-66
2021/12/26 06:29:41;;;;;;;27.60;14.07;;;-6.80;99.90;;;;;;5074449;28;20216;-68
2021/12/26 06:32:08;;;;;;;27.33;13.50;;;-6.80;99.90;;;;;;5078900;28;20205;-66
2021/12/26 06:34:35;;;;;;;28.13;14.07;;;-6.80;99.90;;;;;;5073941;28;20215;-67
2021/12/26 06:37:04;;;;;;;27.23;13.70;;;-6.80;99.90;;;;;;5074147;28;20209;-66
2021/12/26 06:39:30;;;;;;;29.10;14.50;;;-6.80;99.90;;;;;;5073427;28;20630;-65
2021/12/26 06:41:58;;;;;;;30.83;13.97;;;-6.80;99.90;;;;;;5073410;28;20702;-67
2021/12/26 06:44:25;;;;;;;33.17;14.07;;;-6.80;99.90;;;;;;5073465;28;20236;-68
2021/12/26 06:46:51;;;;;;;31.33;13.43;;;-6.80;99.90;;;;;;5074142;28;20211;-67
2021/12/26 06:49:19;;;;;;;29.63;13.40;;;-6.80;99.90;;;;;;5073769;28;20560;-67
2021/12/26 06:51:46;;;;;;;28.57;12.87;;;-6.70;99.90;;;;;;5073387;28;20201;-66
2021/12/26 06:54:14;;;;;;;30.43;13.67;;;-6.70;99.90;;;;;;5073369;28;20216;-66
2021/12/26 06:56:41;;;;;;;31.40;13.47;;;-6.80;99.90;;;;;;5073017;28;20235;-66
2021/12/26 06:59:08;;;;;;;29.87;14.33;;;-6.70;99.90;;;;;;5073626;28;20748;-66
2021/12/26 07:01:35;;;;;;;27.30;13.27;;;-6.70;99.90;;;;;;5072502;28;20298;-65
2021/12/26 07:04:02;;;;;;;24.50;13.03;;;-6.70;99.90;;;;;;5073858;28;20574;-66
2021/12/26 07:06:29;;;;;;;30.97;14.17;;;-6.70;99.90;;;;;;5073677;28;20214;-65
2021/12/26 07:08:56;;;;;;;34.57;15.33;;;-6.60;99.90;;;;;;5074459;28;20836;-66
2021/12/26 07:11:24;;;;;;;32.40;14.53;;;-6.60;99.90;;;;;;5074008;28;20217;-66
2021/12/26 07:13:51;;;;;;;29.67;14.13;;;-6.50;99.90;;;;;;5072623;28;20208;-66
2021/12/26 07:16:18;;;;;;;33.70;15.20;;;-6.50;99.90;;;;;;5064095;28;20655;-66
2021/12/26 07:18:44;;;;;;;31.00;14.23;;;-6.50;99.90;;;;;;5073018;28;20215;-67
2021/12/26 07:21:11;;;;;;;29.63;14.53;;;-6.40;99.90;;;;;;5072937;28;20668;-66
2021/12/26 07:23:38;;;;;;;27.30;14.13;;;-6.30;99.90;;;;;;5072330;28;20225;-66
2021/12/26 07:26:05;;;;;;;30.73;14.03;;;-6.20;99.90;;;;;;5073218;28;20209;-66
2021/12/26 07:28:33;;;;;;;33.37;14.10;;;-6.20;99.90;;;;;;5073096;28;20743;-66
2021/12/26 07:31:00;;;;;;;31.57;14.70;;;-6.10;99.90;;;;;;5072480;28;20213;-65
2021/12/26 07:33:27;;;;;;;31.53;14.10;;;-6.00;99.90;;;;;;5069836;28;20297;-66
2021/12/26 07:35:55;;;;;;;29.47;13.63;;;-6.00;99.90;;;;;;5072303;28;20202;-66
2021/12/26 07:38:22;;;;;;;28.87;15.00;;;-6.00;99.90;;;;;;5072741;28;20592;-66
2021/12/26 07:40:49;;;;;;;27.80;14.03;;;-5.90;99.90;;;;;;5072523;28;20209;-66
2021/12/26 07:43:16;;;;;;;27.50;13.10;;;-5.90;99.90;;;;;;5072032;28;20228;-66
2021/12/26 07:45:44;;;;;;;28.77;13.40;;;-5.80;99.90;;;;;;5075015;28;20232;-66
2021/12/26 07:48:11;;;;;;;31.47;13.90;;;-5.80;99.90;;;;;;5072639;28;20227;-67
2021/12/26 07:50:38;;;;;;;32.77;14.73;;;-5.80;99.90;;;;;;5062632;28;20613;-67
2021/12/26 07:53:09;;;;;;;33.27;16.03;;;-5.70;99.90;;;;;;5073009;28;20662;-68
2021/12/26 07:55:36;;;;;;;32.67;14.60;;;-5.70;99.90;;;;;;5073585;28;20308;-64
2021/12/26 07:58:03;;;;;;;32.37;14.20;;;-5.60;99.90;;;;;;5067118;28;20328;-67
2021/12/26 08:00:30;;;;;;;32.90;15.33;;;-5.60;99.90;;;;;;5083016;28;20233;-67
2021/12/26 08:02:59;;;;;;;33.77;15.77;;;-5.60;99.90;;;;;;5093395;28;20230;-68
2021/12/26 08:05:27;;;;;;;33.63;14.53;;;-5.50;99.90;;;;;;5095753;28;20200;-66
2021/12/26 08:07:54;;;;;;;34.87;15.73;;;-5.60;99.90;;;;;;5093633;28;20208;-66
2021/12/26 08:10:23;;;;;;;39.17;16.77;;;-5.60;99.90;;;;;;5094371;28;20212;-66
2021/12/26 08:12:50;;;;;;;37.07;15.37;;;-5.50;99.90;;;;;;5094760;28;20222;-66
2021/12/26 08:15:17;;;;;;;29.17;14.93;;;-5.50;99.90;;;;;;5093873;28;20215;-64
2021/12/26 08:17:44;;;;;;;36.17;15.10;;;-5.40;99.90;;;;;;5093140;28;20196;-67
2021/12/26 08:20:13;;;;;;;29.93;14.90;;;-5.40;99.90;;;;;;5102065;28;20323;-67
2021/12/26 08:22:40;;;;;;;32.43;15.47;;;-5.30;99.90;;;;;;5093188;28;20230;-67
2021/12/26 08:25:08;;;;;;;32.60;14.77;;;-5.30;99.90;;;;;;5093563;28;20663;-67
2021/12/26 08:27:35;;;;;;;40.27;16.73;;;-5.20;99.90;;;;;;5092664;28;20246;-67
2021/12/26 08:30:03;;;;;;;35.00;15.90;;;-5.20;99.90;;;;;;5093127;28;20204;-66
2021/12/26 08:32:32;;;;;;;39.67;17.00;;;-5.20;99.90;;;;;;5100027;28;20203;-67
2021/12/26 08:35:01;;;;;;;37.00;15.50;;;-5.20;99.90;;;;;;5084463;28;20209;-66
2021/12/26 08:37:30;;;;;;;38.70;16.20;;;-5.10;99.90;;;;;;5093739;28;20257;-62
2021/12/26 08:39:57;;;;;;;32.90;14.77;;;-5.10;99.90;;;;;;5092421;28;20573;-68
2021/12/26 08:42:25;;;;;;;35.93;14.63;;;-5.00;99.90;;;;;;5091327;28;20219;-67
2021/12/26 08:44:53;;;;;;;29.40;14.40;;;-4.90;99.90;;;;;;5092581;28;20403;-67
2021/12/26 08:47:20;;;;;;;31.57;14.87;;;-4.80;99.90;;;;;;5093488;28;20269;-67
2021/12/26 08:49:47;;;;;;;28.47;13.93;;;-4.70;99.90;;;;;;5092186;28;20307;-66
2021/12/26 08:52:14;;;;;;;27.73;13.97;;;-4.60;99.90;;;;;;5092172;28;20197;-66
2021/12/26 08:54:42;;;;;;;34.60;15.23;;;-4.50;99.90;;;;;;5090965;28;20200;-66
2021/12/26 08:57:10;;;;;;;27.63;14.00;;;-4.40;99.90;;;;;;5090853;28;20220;-66
2021/12/26 08:59:37;;;;;;;31.33;15.23;;;-4.30;99.90;;;;;;5091069;28;20212;-65
2021/12/26 09:02:07;;;;;;;26.80;14.37;;;-4.20;99.90;;;;;;5087260;28;20703;-67
2021/12/26 09:04:34;;;;;;;32.67;14.17;;;-4.10;99.90;;;;;;5096381;28;20218;-66
2021/12/26 09:07:00;;;;;;;28.83;15.33;;;-4.10;99.90;;;;;;5095984;28;20205;-66
2021/12/26 09:09:29;;;;;;;30.83;14.73;;;-4.00;99.90;;;;;;5091674;28;20211;-66
2021/12/26 09:11:58;;;;;;;28.03;13.70;;;-4.00;99.90;;;;;;5091272;28;20247;-64
2021/12/26 09:14:26;;;;;;;26.87;14.07;;;-4.00;99.90;;;;;;5091856;28;20525;-66
2021/12/26 09:16:53;;;;;;;26.93;14.27;;;-4.00;99.90;;;;;;5086928;28;20295;-66
2021/12/26 09:19:20;;;;;;;32.07;15.13;;;-4.00;99.90;;;;;;5091540;28;20215;-66
2021/12/26 09:21:46;;;;;;;27.33;14.10;;;-4.10;99.90;;;;;;5091035;28;20211;-66
2021/12/26 09:24:13;;;;;;;29.27;12.87;;;-4.10;99.90;;;;;;5077381;28;20220;-67
2021/12/26 09:26:40;;;;;;;26.27;13.80;;;-4.20;99.90;;;;;;5091275;28;20227;-70
2021/12/26 09:29:08;;;;;;;30.93;14.90;;;-4.20;99.90;;;;;;5092360;28;20210;-63
2021/12/26 09:31:35;;;;;;;25.57;12.73;;;-4.20;99.90;;;;;;5091780;28;20538;-63
2021/12/26 09:34:02;;;;;;;27.70;14.10;;;-3.30;99.90;;;;;;5091244;28;20885;-66
2021/12/26 09:36:29;;;;;;;29.00;13.87;;;-4.10;99.90;;;;;;5091504;28;20209;-63
2021/12/26 09:38:56;;;;;;;23.73;13.10;;;-4.10;99.90;;;;;;5089726;28;20242;-62
2021/12/26 09:41:23;;;;;;;25.40;12.70;;;-4.10;99.90;;;;;;5089628;28;20565;-64
2021/12/26 09:43:50;;;;;;;27.93;15.07;;;-4.00;99.90;;;;;;5091064;28;20506;-66
2021/12/26 09:46:18;;;;;;;25.17;13.73;;;-4.00;99.90;;;;;;5094684;28;20288;-63
2021/12/26 09:48:45;;;;;;;24.77;13.23;;;-3.90;99.90;;;;;;5094713;28;20197;-69
2021/12/26 09:51:12;;;;;;;29.13;13.37;;;-3.80;99.90;;;;;;5100743;28;20294;-62
2021/12/26 09:53:42;;;;;;;23.17;13.43;;;-3.60;99.90;;;;;;5095091;28;20261;-65
2021/12/26 09:56:10;;;;;;;24.47;12.90;;;-3.50;99.90;;;;;;5094820;28;20311;-63
2021/12/26 09:58:52;;;;;;;25.83;12.93;;;-3.40;99.90;;;;;;5094943;28;20540;-59
2021/12/26 10:01:27;;;;;;;23.80;12.87;;;-3.20;99.90;;;;;;5094484;28;20212;-61
2021/12/26 10:03:54;;;;;;;26.60;12.80;;;-3.00;99.90;;;;;;5080696;28;20224;-61
2021/12/26 10:06:21;;;;;;;27.80;13.10;;;-2.80;99.90;;;;;;5090812;28;20205;-63
2021/12/26 10:08:54;;;;;;;24.07;13.33;;;-2.50;99.90;;;;;;5093598;28;20295;-65
2021/12/26 10:11:24;;;;;;;27.90;13.37;;;-2.20;99.90;;;;;;5088756;28;20665;-65
2021/12/26 10:13:54;;;;;;;28.90;13.67;;;-2.00;99.90;;;;;;5094294;28;20201;-64
2021/12/26 10:16:27;;;;;;;22.13;12.47;;;-2.00;99.90;;;;;;5094329;28;20212;-65
2021/12/26 10:18:54;;;;;;;24.87;12.83;;;-1.90;99.90;;;;;;5092438;28;20652;-63
2021/12/26 10:21:41;;;;;;;27.17;12.60;;;-2.10;99.90;;;;;;5094443;28;20235;-62
2021/12/26 10:24:13;;;;;;;24.17;11.77;;;-2.20;99.90;;;;;;5094191;28;20209;-64
2021/12/26 10:26:42;;;;;;;19.97;12.77;;;-2.30;99.90;;;;;;5093656;28;20283;-63
2021/12/26 10:29:15;;;;;;;30.75;16.13;;;-2.40;99.90;;;;;;5093834;28;20461;-61
2021/12/26 10:31:50;;;;;;;23.77;12.97;;;-2.60;99.90;;;;;;5094323;28;20592;-63
2021/12/26 10:34:21;;;;;;;28.23;13.13;;;-2.60;99.90;;;;;;5100435;28;20199;-63
2021/12/26 10:36:50;;;;;;;28.92;15.05;;;-2.60;99.90;;;;;;5093701;28;20453;-64
2021/12/26 10:39:20;;;;;;;27.80;12.80;;;-2.70;99.90;;;;;;5094745;28;20632;-63
2021/12/26 10:41:49;;;;;;;26.20;12.93;;;-2.70;99.90;;;;;;5093527;28;20201;-64
2021/12/26 10:44:25;;;;;;;26.57;13.20;;;-2.70;99.90;;;;;;5094085;28;20270;-64
2021/12/26 10:46:56;;;;;;;25.10;12.17;;;-2.70;99.90;;;;;;5093122;28;20188;-62
2021/12/26 10:49:25;;;;;;;27.52;16.15;;;-2.70;99.90;;;;;;5092859;28;20456;-64
2021/12/26 10:51:52;;;;;;;19.03;12.40;;;-2.70;99.90;;;;;;5093530;28;20593;-65
2021/12/26 10:54:25;;;;;;;24.23;12.67;;;-2.70;99.90;;;;;;5093223;28;20211;-64
2021/12/26 10:57:13;;;;;;;26.13;13.17;;;-2.80;99.90;;;;;;5099918;28;20232;-63
2021/12/26 10:59:42;;;;;;;23.67;12.97;;;-2.80;99.90;;;;;;5090628;28;20223;-66
2021/12/26 11:02:10;;;;;;;25.17;13.17;;;-2.70;99.90;;;;;;5095193;28;20564;-64
2021/12/26 11:04:38;;;;;;;22.50;12.03;;;-2.80;99.90;;;;;;5103593;28;20214;-64
2021/12/26 11:07:09;;;;;;;23.20;13.07;;;-2.80;99.90;;;;;;5095472;28;20282;-64
2021/12/26 11:09:36;;;;;;;29.43;14.03;;;-2.80;99.90;;;;;;5097698;28;20223;-64
2021/12/26 11:12:07;;;;;;;27.77;13.60;;;-2.80;99.90;;;;;;5094993;28;20211;-63
2021/12/26 11:14:54;;;;;;;23.57;12.63;;;-2.80;99.90;;;;;;5091294;28;20222;-64
2021/12/26 11:17:30;;;;;;;27.83;13.27;;;-2.80;99.90;;;;;;5091753;28;20223;-64
2021/12/26 11:19:57;;;;;;;27.03;13.27;;;-2.80;99.90;;;;;;5090563;28;20210;-64
2021/12/26 11:22:25;;;;;;;22.73;12.10;;;-2.80;99.90;;;;;;5090734;28;20209;-65
2021/12/26 11:24:53;;;;;;;23.77;12.63;;;-2.80;99.90;;;;;;5095446;28;20586;-64
2021/12/26 11:27:20;;;;;;;25.50;13.30;;;-2.80;99.90;;;;;;5093120;28;20335;-63
2021/12/26 11:29:48;;;;;;;24.67;13.40;;;-2.80;99.90;;;;;;5090725;28;20227;-64
2021/12/26 11:32:16;;;;;;;23.87;13.27;;;-2.80;99.90;;;;;;5093782;28;20205;-64
2021/12/26 11:34:47;;;;;;;24.63;11.77;;;-2.90;99.90;;;;;;5080025;28;20205;-63
2021/12/26 11:37:15;;;;;;;24.77;13.07;;;-2.80;99.90;;;;;;5081673;28;20658;-65
2021/12/26 11:39:43;;;;;;;24.73;12.83;;;-2.80;99.90;;;;;;5095325;28;20673;-65
2021/12/26 11:42:40;;;;;;;27.20;13.47;;;-2.80;99.90;;;;;;5092927;28;20299;-65
2021/12/26 11:45:13;;;;;;;22.97;13.87;;;-2.80;99.90;;;;;;5083704;28;20193;-64
2021/12/26 11:48:21;;;;;;;25.63;13.40;;;-2.70;99.90;;;;;;5096159;28;20201;-64
2021/12/26 11:51:02;;;;;;;22.33;12.00;;;-2.70;99.90;;;;;;5070599;28;20242;-62
2021/12/26 11:53:55;;;;;;;22.73;12.70;;;-2.60;99.90;;;;;;5102644;28;20516;-64
2021/12/26 11:56:32;;;;;;;24.53;13.00;;;-2.60;99.90;;;;;;5091861;28;20239;-63
2021/12/26 11:59:19;;;;;;;28.53;12.27;;;-2.40;99.90;;;;;;5084558;28;20208;-64
2021/12/26 12:01:48;;;;;;;22.57;12.43;;;-2.30;99.90;;;;;;5090167;28;20681;-63
2021/12/26 12:04:18;;;;;;;24.83;12.60;;;-2.20;99.90;;;;;;5093226;28;20613;-63
2021/12/26 12:06:48;;;;;;;21.77;12.80;;;-2.10;99.90;;;;;;5093566;28;20218;-64
2021/12/26 12:09:29;;;;;;;23.77;12.77;;;-2.00;99.90;;;;;;5099736;28;20350;-63
2021/12/26 12:12:08;;;;;;;23.57;13.07;;;-1.90;99.90;;;;;;5101646;28;20315;-62
2021/12/26 12:14:54;;;;;;;23.37;13.03;;;-1.60;99.90;;;;;;5093232;28;20288;-63
2021/12/26 12:17:23;;;;;;;25.83;12.27;;;-1.30;99.90;;;;;;5092987;28;20228;-66
2021/12/26 12:20:14;;;;;;;19.33;11.20;;;-1.20;99.90;;;;;;5092116;28;20291;-62
2021/12/26 12:23:12;;;;;;;20.63;11.70;;;-1.10;99.90;;;;;;5079553;28;20727;-63
2021/12/26 12:25:41;;;;;;;21.90;11.47;;;-1.00;99.90;;;;;;5095915;28;20196;-65
2021/12/26 12:28:10;;;;;;;20.47;11.80;;;-0.90;99.90;;;;;;5100020;28;20327;-63
2021/12/26 12:30:39;;;;;;;20.67;11.77;;;-0.90;99.90;;;;;;5094909;28;20212;-63
2021/12/26 12:33:22;;;;;;;21.40;11.80;;;-0.90;99.90;;;;;;5099583;28;20239;-63
2021/12/26 12:36:08;;;;;;;28.17;12.80;;;-1.00;99.90;;;;;;5094142;28;20535;-63
2021/12/26 12:38:40;;;;;;;29.67;13.40;;;-1.00;99.90;;;;;;5092655;28;20572;-64